Go America — WDG9587 — position and weather

sailwx.info

Track history (hours):
 
Tides and Currents Weather Stations Pressure Air Temp Water Temp Dewpoint Dewpoint Depression Visibility Wind Speed Wind Dir Waves Ship Positions

Go America

Owner: GO AMERICA, Lafayette, LA. More information available from US FCC via Universal Licensing System and Coast Guard Vessel Documentation Center.

Last reported at 2018-Feb-10 02:28 UTC. Time now 2018-Feb-19 14:18 UTC.
Position N 26°15' W 079°46'.
Warning: this ship's position is 9 days out of date.

Length 44 m; draft 3.5 m.

Type: Other ship. MMSI: 366838720.

Date/timePositionNaut miles runAvg speedWind from/ knotsBaromVisibWave heightAir tempDewpointWater temp
2018-Feb-10 02:28N 26°15' W 079°46'3 5.8
2018-Feb-10 02:00N 26°14' W 079°49'3 5.8
2018-Feb-10 01:30N 26°12' W 079°52'3 6.2
2018-Feb-10 01:00N 26°10' W 079°55'5 9.4
2018-Feb-10 00:30N 26°08' W 079°59'4 8.7
2018-Feb-10 00:01N 26°06' W 080°03'2 4.9
2018-Feb-09 23:31N 26°06' W 080°06'1 1.2
2018-Feb-09 22:58N 26°06' W 080°07'0 0.0
2018-Feb-09 22:43N 26°06' W 080°07'0 0.0
2018-Feb-08 10:30N 26°06' W 080°07'0 0.0
2018-Feb-08 09:30N 26°06' W 080°07'0 0.0
2018-Feb-08 08:30N 26°06' W 080°07'0 0.0
2018-Feb-08 03:30N 26°06' W 080°07'0 0.0
2018-Feb-08 03:00N 26°06' W 080°07'0 0.0
2018-Feb-08 02:30N 26°06' W 080°07'0 0.0
2018-Feb-08 02:00N 26°06' W 080°07'0 0.0
2018-Feb-08 01:30N 26°06' W 080°07'0 0.0
2018-Feb-08 01:01N 26°06' W 080°07'0 0.0
2018-Feb-08 00:30N 26°06' W 080°07'0 0.0
2018-Feb-08 00:00N 26°06' W 080°07'0 0.0
2018-Feb-07 23:30N 26°06' W 080°07'0 0.0
2018-Feb-07 23:00N 26°06' W 080°07'0 0.0
2018-Feb-07 22:30N 26°06' W 080°07'0 0.0
2018-Feb-07 22:00N 26°06' W 080°07'0 0.0
2018-Feb-07 21:31N 26°06' W 080°07'0 0.0
2018-Feb-07 09:30N 26°06' W 080°07'0 0.0
2018-Feb-07 09:00N 26°06' W 080°07'0 0.0
2018-Feb-07 08:30N 26°06' W 080°07'0 0.0
2018-Feb-07 08:01N 26°06' W 080°07'0 0.0
2018-Feb-07 07:30N 26°06' W 080°07'0 0.0
2018-Feb-07 07:00N 26°06' W 080°07'0 0.0
2018-Feb-07 06:31N 26°06' W 080°07'0 0.0
2018-Feb-07 06:00N 26°06' W 080°07'0 0.0
2018-Feb-07 05:30N 26°06' W 080°07'0 0.0
2018-Feb-07 04:59N 26°06' W 080°07'0 0.0
2018-Feb-07 04:00N 26°06' W 080°07'0 0.0
2018-Feb-07 03:01N 26°06' W 080°07'0 0.0
2018-Feb-07 02:30N 26°06' W 080°07'0 0.0
2018-Feb-07 02:00N 26°06' W 080°07'0 0.0
2018-Feb-07 01:31N 26°06' W 080°07'0 0.0
2018-Feb-07 00:30N 26°06' W 080°07'0 0.0
2018-Feb-06 23:30N 26°06' W 080°07'0 0.0
2018-Feb-06 23:01N 26°06' W 080°07'0 0.0
2018-Feb-06 22:30N 26°06' W 080°07'0 0.0
2018-Feb-06 22:00N 26°06' W 080°07'0 0.0
2018-Feb-06 21:30N 26°06' W 080°07'0 0.0
2018-Feb-06 20:30N 26°06' W 080°07'0 0.0
2018-Feb-06 20:00N 26°06' W 080°07'0 0.0
2018-Feb-06 19:30N 26°06' W 080°07'1 0.8
2018-Feb-06 18:00N 26°06' W 080°05'9 9.4
2018-Feb-06 17:00N 26°07' W 079°55'4 8.0
2018-Feb-06 16:30N 26°07' W 079°51'9 8.5
2018-Feb-06 15:30N 26°08' W 079°41'4 8.8
2018-Feb-06 15:00N 26°08' W 079°36'5 9.0
2018-Feb-06 14:25N 26°09' W 079°30'  
2018-Feb-03 18:30N 26°08' W 079°44'4 8.2
2018-Feb-03 17:59N 26°08' W 079°48'4 8.2
2018-Feb-03 17:29N 26°08' W 079°53'4 8.2
2018-Feb-03 17:00N 26°08' W 079°57'8 7.5
2018-Feb-03 16:01N 26°06' W 080°05'1 2.2
2018-Feb-03 15:31N 26°06' W 080°07'0 0.0
2018-Feb-03 15:00N 26°06' W 080°07'0 0.0
2018-Feb-03 14:31N 26°06' W 080°07'0 0.0
2018-Feb-03 14:00N 26°06' W 080°07'0 0.0
2018-Feb-03 13:30N 26°06' W 080°07'0 0.0
2018-Feb-03 13:00N 26°06' W 080°07'0 0.0
2018-Feb-03 12:30N 26°06' W 080°07'0 0.0
2018-Feb-03 12:00N 26°06' W 080°07'0 0.0
2018-Feb-03 11:30N 26°06' W 080°07'0 0.0
2018-Feb-03 11:00N 26°06' W 080°07'0 0.0
2018-Feb-03 10:30N 26°06' W 080°07'0 0.0
2018-Feb-03 10:00N 26°06' W 080°07'0 0.0
2018-Feb-03 09:30N 26°06' W 080°07'0 0.0
2018-Feb-03 09:00N 26°06' W 080°07'0 0.0
2018-Feb-03 08:30N 26°06' W 080°07'0 0.0
2018-Feb-03 08:00N 26°06' W 080°07'0 0.0
2018-Feb-03 06:30N 26°06' W 080°07'0 0.0
2018-Feb-03 06:00N 26°06' W 080°07'0 0.0
2018-Feb-03 05:30N 26°06' W 080°07'0 0.0
2018-Feb-03 05:00N 26°06' W 080°07'0 0.0
2018-Feb-03 04:00N 26°06' W 080°07'0 0.0
2018-Feb-03 03:30N 26°06' W 080°07'0 0.0
2018-Feb-03 02:00N 26°06' W 080°07'0 0.0
2018-Feb-03 01:30N 26°06' W 080°07'0 0.0
2018-Feb-03 01:00N 26°06' W 080°07'0 0.0
2018-Feb-03 00:30N 26°06' W 080°07'0 0.0
2018-Feb-03 00:00N 26°06' W 080°07'0 0.0
2018-Feb-02 23:30N 26°06' W 080°07'0 0.0
2018-Feb-02 23:00N 26°06' W 080°07'0 0.0
2018-Feb-02 22:31N 26°06' W 080°07'0 0.0
2018-Feb-02 22:00N 26°06' W 080°07'0 0.0
2018-Feb-02 21:30N 26°06' W 080°07'0 0.0
2018-Feb-02 21:00N 26°06' W 080°07'0 0.0
2018-Feb-02 20:31N 26°06' W 080°07'0 0.0
2018-Feb-02 20:00N 26°06' W 080°07'0 0.0
2018-Feb-02 19:00N 26°06' W 080°07'0 0.0
2018-Feb-02 18:31N 26°06' W 080°07'4 7.3
2018-Feb-02 18:00N 26°05' W 080°03'2 4.8
2018-Feb-02 17:30N 26°05' W 079°60'4 8.2
2018-Feb-02 17:00N 26°02' W 080°01'2 4.4
2018-Feb-02 16:30N 25°59' W 080°01'4 4.3
2018-Feb-02 15:30N 26°04' W 080°01'4 3.8
2018-Feb-02 14:30N 25°60' W 080°01'2 4.4
2018-Feb-02 14:01N 26°02' W 080°01'2 4.4
2018-Feb-02 13:31N 26°04' W 080°01'4 7.9
2018-Feb-02 13:00N 26°00' W 080°01'0 0.9
2018-Feb-02 12:31N 26°01' W 080°01'2 4.2
2018-Feb-02 12:01N 26°03' W 080°01'4 7.6
2018-Feb-02 11:31N 26°05' W 080°05'2 3.7
2018-Feb-02 11:01N 26°06' W 080°07'0 0.0
2018-Feb-02 10:30N 26°06' W 080°07'0 0.0
2018-Feb-02 10:00N 26°06' W 080°07'0 0.0
2018-Feb-02 09:30N 26°06' W 080°07'0 0.0
2018-Feb-02 09:01N 26°06' W 080°07'0 0.0
2018-Feb-02 08:31N 26°06' W 080°07'0 0.0
2018-Feb-02 08:01N 26°06' W 080°07'0 0.0
2018-Feb-02 07:30N 26°06' W 080°07'0 0.0
2018-Feb-02 07:00N 26°06' W 080°07'0 0.0
2018-Feb-02 06:30N 26°06' W 080°07'0 0.0
2018-Feb-02 06:00N 26°06' W 080°07'0 0.0
2018-Feb-02 05:30N 26°06' W 080°07'0 0.0
2018-Feb-02 05:00N 26°06' W 080°07'0 0.0
2018-Feb-02 04:31N 26°06' W 080°07'0 0.0
2018-Feb-02 04:00N 26°06' W 080°07'0 0.0
2018-Feb-02 03:30N 26°06' W 080°07'0 0.0
2018-Feb-02 03:00N 26°06' W 080°07'0 0.0
2018-Feb-02 02:30N 26°06' W 080°07'0 0.0
2018-Feb-02 01:59N 26°06' W 080°07'0 0.0
2018-Feb-02 01:30N 26°06' W 080°07'0 0.0
2018-Feb-02 01:00N 26°06' W 080°07'0 0.0
2018-Feb-02 00:30N 26°06' W 080°07'0 0.0
2018-Feb-02 00:00N 26°06' W 080°07'0 0.7
2018-Feb-01 23:31N 26°06' W 080°06'5 9.2
2018-Feb-01 23:00N 26°04' W 080°01'3 3.1
2018-Feb-01 22:01N 26°01' W 080°01'2 4.7
2018-Feb-01 21:30N 26°03' W 080°01'0 0.1
2018-Feb-01 19:30N 26°03' W 080°01'1 2.6
2018-Feb-01 19:00N 26°02' W 080°01'2 4.4
2018-Feb-01 18:30N 25°60' W 080°01'2 4.2
2018-Feb-01 18:00N 26°02' W 080°01'2 4.5
2018-Feb-01 17:30N 26°04' W 080°01'3 5.8
2018-Feb-01 17:00N 26°01' W 080°01'1 2.3
2018-Feb-01 16:30N 26°00' W 080°02'2 4.4
2018-Feb-01 16:00N 26°02' W 080°01'2 3.7
2018-Feb-01 15:30N 26°04' W 080°00'4 7.6
2018-Feb-01 15:00N 26°00' W 080°02'3 2.0
2018-Feb-01 13:30N 26°03' W 080°01'2 4.9
2018-Feb-01 13:00N 26°01' W 080°01'2 3.8
2018-Feb-01 12:30N 26°03' W 080°01'3 5.8
2018-Feb-01 12:00N 26°04' W 080°04'3 2.9
2018-Feb-01 10:58N 26°06' W 080°07'0 0.0
2018-Feb-01 10:30N 26°06' W 080°07'0 0.0
2018-Feb-01 10:00N 26°06' W 080°07'0 0.0
2018-Feb-01 09:30N 26°06' W 080°07'0 0.0
2018-Feb-01 09:00N 26°06' W 080°07'0 0.0
2018-Feb-01 08:30N 26°06' W 080°07'0 0.0
2018-Feb-01 07:30N 26°06' W 080°07'0 0.0
2018-Feb-01 07:00N 26°06' W 080°07'0 0.0
2018-Feb-01 06:30N 26°06' W 080°07'0 0.0
2018-Feb-01 06:00N 26°06' W 080°07'0 0.0
2018-Feb-01 05:30N 26°06' W 080°07'0 0.0
2018-Feb-01 05:00N 26°06' W 080°07'0 0.0
2018-Feb-01 04:30N 26°06' W 080°07'0 0.0
2018-Feb-01 04:00N 26°06' W 080°07'0 0.0
2018-Feb-01 03:00N 26°06' W 080°07'0 0.0
2018-Feb-01 02:30N 26°06' W 080°07'0 0.0
2018-Feb-01 02:00N 26°06' W 080°07'0 0.0
2018-Feb-01 01:30N 26°06' W 080°07'0 0.0
2018-Feb-01 01:00N 26°06' W 080°07'0 0.0
2018-Feb-01 00:30N 26°06' W 080°07'0 0.0
2018-Feb-01 00:00N 26°06' W 080°07'0 0.0
2018-Jan-31 23:00N 26°06' W 080°07'0 0.0
2018-Jan-31 22:30N 26°06' W 080°07'0 0.0
2018-Jan-31 21:00N 26°06' W 080°07'0 0.0
2018-Jan-31 20:30N 26°06' W 080°07'0 0.0
2018-Jan-31 20:00N 26°06' W 080°07'0 0.0
2018-Jan-31 19:30N 26°06' W 080°07'0 0.0
2018-Jan-31 19:00N 26°06' W 080°07'0 0.0
2018-Jan-31 18:30N 26°06' W 080°07'0 0.0
2018-Jan-31 18:00N 26°06' W 080°07'0 0.0
2018-Jan-31 17:30N 26°06' W 080°07'0 0.0
2018-Jan-31 17:00N 26°06' W 080°07'0 0.0
2018-Jan-31 16:30N 26°06' W 080°07'0 0.0
2018-Jan-31 16:00N 26°06' W 080°07'0 0.0
2018-Jan-31 15:30N 26°06' W 080°07'0 0.0
2018-Jan-31 14:57N 26°06' W 080°07'0 0.0
2018-Jan-31 14:30N 26°06' W 080°07'0 0.0
2018-Jan-31 12:57N 26°06' W 080°07'0 0.0
2018-Jan-31 12:30N 26°06' W 080°07'0 0.0
2018-Jan-31 12:00N 26°06' W 080°07'0 0.0
2018-Jan-31 11:30N 26°06' W 080°07'0 0.0
2018-Jan-31 11:00N 26°06' W 080°07'0 0.0
2018-Jan-31 10:30N 26°06' W 080°07'0 0.0
2018-Jan-31 10:00N 26°06' W 080°07'0 0.0
2018-Jan-31 09:30N 26°06' W 080°07'0 0.0
2018-Jan-31 09:00N 26°06' W 080°07'0 0.0
2018-Jan-31 08:30N 26°06' W 080°07'0 0.0
2018-Jan-31 08:00N 26°06' W 080°07'0 0.0
2018-Jan-31 07:30N 26°06' W 080°07'0 0.0
2018-Jan-31 07:00N 26°06' W 080°07'0 0.0
2018-Jan-31 06:30N 26°06' W 080°07'0 0.0
2018-Jan-31 06:00N 26°06' W 080°07'0 0.0
2018-Jan-31 05:30N 26°06' W 080°07'0 0.0
2018-Jan-31 05:00N 26°06' W 080°07'0 0.0
2018-Jan-31 04:30N 26°06' W 080°07'0 0.0
2018-Jan-31 04:00N 26°06' W 080°07'0 0.0
2018-Jan-31 03:30N 26°06' W 080°07'0 0.0
2018-Jan-31 03:00N 26°06' W 080°07'0 0.0
2018-Jan-31 02:30N 26°06' W 080°07'  
Track history (hours):
 
Tides and Currents Weather Stations Pressure Air Temp Water Temp Dewpoint Dewpoint Depression Visibility Wind Speed Wind Dir Waves Ship Positions

Go America

Owner: GO AMERICA, Lafayette, LA. More information available from US FCC via Universal Licensing System and Coast Guard Vessel Documentation Center.

Last reported at 2018-Feb-10 02:28 UTC. Time now 2018-Feb-19 14:18 UTC.
Position N 26°15' W 079°46'.
Warning: this ship's position is 9 days out of date.

Length 44 m; draft 3.5 m.

Type: Other ship. MMSI: 366838720.

Date/timePositionNaut miles runAvg speedWind from/ knotsBaromVisibWave heightAir tempDewpointWater temp
2018-Feb-10 02:28N 26°15' W 079°46'3 5.8
2018-Feb-10 02:00N 26°14' W 079°49'3 5.8
2018-Feb-10 01:30N 26°12' W 079°52'3 6.2
2018-Feb-10 01:00N 26°10' W 079°55'5 9.4
2018-Feb-10 00:30N 26°08' W 079°59'4 8.7
2018-Feb-10 00:01N 26°06' W 080°03'2 4.9
2018-Feb-09 23:31N 26°06' W 080°06'1 1.2
2018-Feb-09 22:58N 26°06' W 080°07'0 0.0
2018-Feb-09 22:43N 26°06' W 080°07'0 0.0
2018-Feb-08 10:30N 26°06' W 080°07'0 0.0
2018-Feb-08 09:30N 26°06' W 080°07'0 0.0
2018-Feb-08 08:30N 26°06' W 080°07'0 0.0
2018-Feb-08 03:30N 26°06' W 080°07'0 0.0
2018-Feb-08 03:00N 26°06' W 080°07'0 0.0
2018-Feb-08 02:30N 26°06' W 080°07'0 0.0
2018-Feb-08 02:00N 26°06' W 080°07'0 0.0
2018-Feb-08 01:30N 26°06' W 080°07'0 0.0
2018-Feb-08 01:01N 26°06' W 080°07'0 0.0
2018-Feb-08 00:30N 26°06' W 080°07'0 0.0
2018-Feb-08 00:00N 26°06' W 080°07'0 0.0
2018-Feb-07 23:30N 26°06' W 080°07'0 0.0
2018-Feb-07 23:00N 26°06' W 080°07'0 0.0
2018-Feb-07 22:30N 26°06' W 080°07'0 0.0
2018-Feb-07 22:00N 26°06' W 080°07'0 0.0
2018-Feb-07 21:31N 26°06' W 080°07'0 0.0
2018-Feb-07 09:30N 26°06' W 080°07'0 0.0
2018-Feb-07 09:00N 26°06' W 080°07'0 0.0
2018-Feb-07 08:30N 26°06' W 080°07'0 0.0
2018-Feb-07 08:01N 26°06' W 080°07'0 0.0
2018-Feb-07 07:30N 26°06' W 080°07'0 0.0
2018-Feb-07 07:00N 26°06' W 080°07'0 0.0
2018-Feb-07 06:31N 26°06' W 080°07'0 0.0
2018-Feb-07 06:00N 26°06' W 080°07'0 0.0
2018-Feb-07 05:30N 26°06' W 080°07'0 0.0
2018-Feb-07 04:59N 26°06' W 080°07'0 0.0
2018-Feb-07 04:00N 26°06' W 080°07'0 0.0
2018-Feb-07 03:01N 26°06' W 080°07'0 0.0
2018-Feb-07 02:30N 26°06' W 080°07'0 0.0
2018-Feb-07 02:00N 26°06' W 080°07'0 0.0
2018-Feb-07 01:31N 26°06' W 080°07'0 0.0
2018-Feb-07 00:30N 26°06' W 080°07'0 0.0
2018-Feb-06 23:30N 26°06' W 080°07'0 0.0
2018-Feb-06 23:01N 26°06' W 080°07'0 0.0
2018-Feb-06 22:30N 26°06' W 080°07'0 0.0
2018-Feb-06 22:00N 26°06' W 080°07'0 0.0
2018-Feb-06 21:30N 26°06' W 080°07'0 0.0
2018-Feb-06 20:30N 26°06' W 080°07'0 0.0
2018-Feb-06 20:00N 26°06' W 080°07'0 0.0
2018-Feb-06 19:30N 26°06' W 080°07'1 0.8
2018-Feb-06 18:00N 26°06' W 080°05'9 9.4
2018-Feb-06 17:00N 26°07' W 079°55'4 8.0
2018-Feb-06 16:30N 26°07' W 079°51'9 8.5
2018-Feb-06 15:30N 26°08' W 079°41'4 8.8
2018-Feb-06 15:00N 26°08' W 079°36'5 9.0
2018-Feb-06 14:25N 26°09' W 079°30'  
2018-Feb-03 18:30N 26°08' W 079°44'4 8.2
2018-Feb-03 17:59N 26°08' W 079°48'4 8.2
2018-Feb-03 17:29N 26°08' W 079°53'4 8.2
2018-Feb-03 17:00N 26°08' W 079°57'8 7.5
2018-Feb-03 16:01N 26°06' W 080°05'1 2.2
2018-Feb-03 15:31N 26°06' W 080°07'0 0.0
2018-Feb-03 15:00N 26°06' W 080°07'0 0.0
2018-Feb-03 14:31N 26°06' W 080°07'0 0.0
2018-Feb-03 14:00N 26°06' W 080°07'0 0.0
2018-Feb-03 13:30N 26°06' W 080°07'0 0.0
2018-Feb-03 13:00N 26°06' W 080°07'0 0.0
2018-Feb-03 12:30N 26°06' W 080°07'0 0.0
2018-Feb-03 12:00N 26°06' W 080°07'0 0.0
2018-Feb-03 11:30N 26°06' W 080°07'0 0.0
2018-Feb-03 11:00N 26°06' W 080°07'0 0.0
2018-Feb-03 10:30N 26°06' W 080°07'0 0.0
2018-Feb-03 10:00N 26°06' W 080°07'0 0.0
2018-Feb-03 09:30N 26°06' W 080°07'0 0.0
2018-Feb-03 09:00N 26°06' W 080°07'0 0.0
2018-Feb-03 08:30N 26°06' W 080°07'0 0.0
2018-Feb-03 08:00N 26°06' W 080°07'0 0.0
2018-Feb-03 06:30N 26°06' W 080°07'0 0.0
2018-Feb-03 06:00N 26°06' W 080°07'0 0.0
2018-Feb-03 05:30N 26°06' W 080°07'0 0.0
2018-Feb-03 05:00N 26°06' W 080°07'0 0.0
2018-Feb-03 04:00N 26°06' W 080°07'0 0.0
2018-Feb-03 03:30N 26°06' W 080°07'0 0.0
2018-Feb-03 02:00N 26°06' W 080°07'0 0.0
2018-Feb-03 01:30N 26°06' W 080°07'0 0.0
2018-Feb-03 01:00N 26°06' W 080°07'0 0.0
2018-Feb-03 00:30N 26°06' W 080°07'0 0.0
2018-Feb-03 00:00N 26°06' W 080°07'0 0.0
2018-Feb-02 23:30N 26°06' W 080°07'0 0.0
2018-Feb-02 23:00N 26°06' W 080°07'0 0.0
2018-Feb-02 22:31N 26°06' W 080°07'0 0.0
2018-Feb-02 22:00N 26°06' W 080°07'0 0.0
2018-Feb-02 21:30N 26°06' W 080°07'0 0.0
2018-Feb-02 21:00N 26°06' W 080°07'0 0.0
2018-Feb-02 20:31N 26°06' W 080°07'0 0.0
2018-Feb-02 20:00N 26°06' W 080°07'0 0.0
2018-Feb-02 19:00N 26°06' W 080°07'0 0.0
2018-Feb-02 18:31N 26°06' W 080°07'4 7.3
2018-Feb-02 18:00N 26°05' W 080°03'2 4.8
2018-Feb-02 17:30N 26°05' W 079°60'4 8.2
2018-Feb-02 17:00N 26°02' W 080°01'2 4.4
2018-Feb-02 16:30N 25°59' W 080°01'4 4.3
2018-Feb-02 15:30N 26°04' W 080°01'4 3.8
2018-Feb-02 14:30N 25°60' W 080°01'2 4.4
2018-Feb-02 14:01N 26°02' W 080°01'2 4.4
2018-Feb-02 13:31N 26°04' W 080°01'4 7.9
2018-Feb-02 13:00N 26°00' W 080°01'0 0.9
2018-Feb-02 12:31N 26°01' W 080°01'2 4.2
2018-Feb-02 12:01N 26°03' W 080°01'4 7.6
2018-Feb-02 11:31N 26°05' W 080°05'2 3.7
2018-Feb-02 11:01N 26°06' W 080°07'0 0.0
2018-Feb-02 10:30N 26°06' W 080°07'0 0.0
2018-Feb-02 10:00N 26°06' W 080°07'0 0.0
2018-Feb-02 09:30N 26°06' W 080°07'0 0.0
2018-Feb-02 09:01N 26°06' W 080°07'0 0.0
2018-Feb-02 08:31N 26°06' W 080°07'0 0.0
2018-Feb-02 08:01N 26°06' W 080°07'0 0.0
2018-Feb-02 07:30N 26°06' W 080°07'0 0.0
2018-Feb-02 07:00N 26°06' W 080°07'0 0.0
2018-Feb-02 06:30N 26°06' W 080°07'0 0.0
2018-Feb-02 06:00N 26°06' W 080°07'0 0.0
2018-Feb-02 05:30N 26°06' W 080°07'0 0.0
2018-Feb-02 05:00N 26°06' W 080°07'0 0.0
2018-Feb-02 04:31N 26°06' W 080°07'0 0.0
2018-Feb-02 04:00N 26°06' W 080°07'0 0.0
2018-Feb-02 03:30N 26°06' W 080°07'0 0.0
2018-Feb-02 03:00N 26°06' W 080°07'0 0.0
2018-Feb-02 02:30N 26°06' W 080°07'0 0.0
2018-Feb-02 01:59N 26°06' W 080°07'0 0.0
2018-Feb-02 01:30N 26°06' W 080°07'0 0.0
2018-Feb-02 01:00N 26°06' W 080°07'0 0.0
2018-Feb-02 00:30N 26°06' W 080°07'0 0.0
2018-Feb-02 00:00N 26°06' W 080°07'0 0.7
2018-Feb-01 23:31N 26°06' W 080°06'5 9.2
2018-Feb-01 23:00N 26°04' W 080°01'3 3.1
2018-Feb-01 22:01N 26°01' W 080°01'2 4.7
2018-Feb-01 21:30N 26°03' W 080°01'0 0.1
2018-Feb-01 19:30N 26°03' W 080°01'1 2.6
2018-Feb-01 19:00N 26°02' W 080°01'2 4.4
2018-Feb-01 18:30N 25°60' W 080°01'2 4.2
2018-Feb-01 18:00N 26°02' W 080°01'2 4.5
2018-Feb-01 17:30N 26°04' W 080°01'3 5.8
2018-Feb-01 17:00N 26°01' W 080°01'1 2.3
2018-Feb-01 16:30N 26°00' W 080°02'2 4.4
2018-Feb-01 16:00N 26°02' W 080°01'2 3.7
2018-Feb-01 15:30N 26°04' W 080°00'4 7.6
2018-Feb-01 15:00N 26°00' W 080°02'3 2.0
2018-Feb-01 13:30N 26°03' W 080°01'2 4.9
2018-Feb-01 13:00N 26°01' W 080°01'2 3.8
2018-Feb-01 12:30N 26°03' W 080°01'3 5.8
2018-Feb-01 12:00N 26°04' W 080°04'3 2.9
2018-Feb-01 10:58N 26°06' W 080°07'0 0.0
2018-Feb-01 10:30N 26°06' W 080°07'0 0.0
2018-Feb-01 10:00N 26°06' W 080°07'0 0.0
2018-Feb-01 09:30N 26°06' W 080°07'0 0.0
2018-Feb-01 09:00N 26°06' W 080°07'0 0.0
2018-Feb-01 08:30N 26°06' W 080°07'0 0.0
2018-Feb-01 07:30N 26°06' W 080°07'0 0.0
2018-Feb-01 07:00N 26°06' W 080°07'0 0.0
2018-Feb-01 06:30N 26°06' W 080°07'0 0.0
2018-Feb-01 06:00N 26°06' W 080°07'0 0.0
2018-Feb-01 05:30N 26°06' W 080°07'0 0.0
2018-Feb-01 05:00N 26°06' W 080°07'0 0.0
2018-Feb-01 04:30N 26°06' W 080°07'0 0.0
2018-Feb-01 04:00N 26°06' W 080°07'0 0.0
2018-Feb-01 03:00N 26°06' W 080°07'0 0.0
2018-Feb-01 02:30N 26°06' W 080°07'0 0.0
2018-Feb-01 02:00N 26°06' W 080°07'0 0.0
2018-Feb-01 01:30N 26°06' W 080°07'0 0.0
2018-Feb-01 01:00N 26°06' W 080°07'0 0.0
2018-Feb-01 00:30N 26°06' W 080°07'0 0.0
2018-Feb-01 00:00N 26°06' W 080°07'0 0.0
2018-Jan-31 23:00N 26°06' W 080°07'0 0.0
2018-Jan-31 22:30N 26°06' W 080°07'0 0.0
2018-Jan-31 21:00N 26°06' W 080°07'0 0.0
2018-Jan-31 20:30N 26°06' W 080°07'0 0.0
2018-Jan-31 20:00N 26°06' W 080°07'0 0.0
2018-Jan-31 19:30N 26°06' W 080°07'0 0.0
2018-Jan-31 19:00N 26°06' W 080°07'0 0.0
2018-Jan-31 18:30N 26°06' W 080°07'0 0.0
2018-Jan-31 18:00N 26°06' W 080°07'0 0.0
2018-Jan-31 17:30N 26°06' W 080°07'0 0.0
2018-Jan-31 17:00N 26°06' W 080°07'0 0.0
2018-Jan-31 16:30N 26°06' W 080°07'0 0.0
2018-Jan-31 16:00N 26°06' W 080°07'0 0.0
2018-Jan-31 15:30N 26°06' W 080°07'0 0.0
2018-Jan-31 14:57N 26°06' W 080°07'0 0.0
2018-Jan-31 14:30N 26°06' W 080°07'0 0.0
2018-Jan-31 12:57N 26°06' W 080°07'0 0.0
2018-Jan-31 12:30N 26°06' W 080°07'0 0.0
2018-Jan-31 12:00N 26°06' W 080°07'0 0.0
2018-Jan-31 11:30N 26°06' W 080°07'0 0.0
2018-Jan-31 11:00N 26°06' W 080°07'0 0.0
2018-Jan-31 10:30N 26°06' W 080°07'0 0.0
2018-Jan-31 10:00N 26°06' W 080°07'0 0.0
2018-Jan-31 09:30N 26°06' W 080°07'0 0.0
2018-Jan-31 09:00N 26°06' W 080°07'0 0.0
2018-Jan-31 08:30N 26°06' W 080°07'0 0.0
2018-Jan-31 08:00N 26°06' W 080°07'0 0.0
2018-Jan-31 07:30N 26°06' W 080°07'0 0.0
2018-Jan-31 07:00N 26°06' W 080°07'0 0.0
2018-Jan-31 06:30N 26°06' W 080°07'0 0.0
2018-Jan-31 06:00N 26°06' W 080°07'0 0.0
2018-Jan-31 05:30N 26°06' W 080°07'0 0.0
2018-Jan-31 05:00N 26°06' W 080°07'0 0.0
2018-Jan-31 04:30N 26°06' W 080°07'0 0.0
2018-Jan-31 04:00N 26°06' W 080°07'0 0.0
2018-Jan-31 03:30N 26°06' W 080°07'0 0.0
2018-Jan-31 03:00N 26°06' W 080°07'0 0.0
2018-Jan-31 02:30N 26°06' W 080°07'  

Dump ship's entire track history